Time;durP1;ratioP1;P1;durP2;ratioP2;P2;SDS_P1;SDS_P2;PMS_P1;PMS_P2;Temp;Humidity;BMP_temperature;BMP_pressure;BME280_temperature;BME280_humidity;BME280_pressure;Samples;Min_cycle;Max_cycle;Signal;HPM_P1;HPM_P2
2022/04/15 00:01:12;;;;;;;;;;;;;;;;;;5050493;28;1122;-70
2022/04/15 00:03:39;;;;;;;;;;;;;;;;;;5051283;28;1028;-70
2022/04/15 00:06:08;;;;;;;;;;;;;;;;;;5048689;28;1705;-69
2022/04/15 00:08:35;;;;;;;;;;;;;;;;;;5050707;28;811;-68
2022/04/15 00:11:01;;;;;;;;;;;;;;;;;;5050356;28;960;-70
2022/04/15 00:13:29;;;;;;;;;;;;;;;;;;5050405;28;826;-71
2022/04/15 00:15:56;;;;;;;;;;;;;;;;;;5049455;28;1914;-70
2022/04/15 00:18:22;;;;;;;;;;;;;;;;;;5050314;28;1103;-70
2022/04/15 00:20:48;;;;;;;;;;;;;;;;;;5050350;28;1084;-71
2022/04/15 00:23:16;;;;;;;;;;;;;;;;;;5050339;28;1083;-70
2022/04/15 00:25:42;;;;;;;;;;;;;;;;;;5050113;28;1649;-71
2022/04/15 00:28:08;;;;;;;;;;;;;;;;;;5050268;28;1120;-70
2022/04/15 00:30:35;;;;;;;;;;;;;;;;;;5050362;28;663;-71
2022/04/15 00:33:01;;;;;;;;;;;;;;;;;;5050300;28;810;-69
2022/04/15 00:35:28;;;;;;;;;;;;;;;;;;5032190;28;1978;-70
2022/04/15 00:37:54;;;;;;;;;;;;;;;;;;5049959;28;1008;-70
2022/04/15 00:40:22;;;;;;;;;;;;;;;;;;5050346;28;771;-70
2022/04/15 00:42:48;;;;;;;;;;;;;;;;;;5051076;28;1068;-71
2022/04/15 00:45:14;;;;;;;;;;;;;;;;;;5053578;28;1590;-69
2022/04/15 00:47:48;;;;;;;;;;;;;;;;;;5054118;28;1115;-71
2022/04/15 00:50:15;;;;;;;;;;;;;;;;;;5051321;28;795;-71
2022/04/15 00:52:43;;;;;;;;;;;;;;;;;;5050271;28;1687;-71
2022/04/15 00:55:10;;;;;;;;;;;;;;;;;;5053007;28;1957;-71
2022/04/15 00:57:37;;;;;;;;;;;;;;;;;;5053223;28;2226;-71
2022/04/15 01:00:05;;;;;;;;;;;;;;;;;;5053978;28;1153;-71
2022/04/15 01:02:32;;;;;;;;;;;;;;;;;;5054160;28;1555;-71
2022/04/15 01:04:58;;;;;;;;;;;;;;;;;;5053593;28;1585;-71
2022/04/15 01:07:24;;;;;;;;;;;;;;;;;;5053537;28;1094;-70
2022/04/15 01:09:51;;;;;;;;;;;;;;;;;;5053827;28;1012;-70
2022/04/15 01:12:18;;;;;;;;;;;;;;;;;;5053487;28;1642;-70
2022/04/15 01:14:45;;;;;;;;;;;;;;;;;;5098031;22;4270;-70
2022/04/15 01:17:12;;;;;;;;;;;;;;;;;;5033191;28;1301;-70
2022/04/15 01:19:38;;;;;;;;;;;;;;;;;;5037761;28;1363;-69
2022/04/15 01:22:04;;;;;;;;;;;;;;;;;;5054171;28;1733;-69
2022/04/15 01:24:32;;;;;;;;;;;;;;;;;;5054518;28;1314;-70
2022/04/15 01:26:58;;;;;;;;;;;;;;;;;;5054459;28;1075;-70
2022/04/15 01:29:26;;;;;;;;;;;;;;;;;;5037408;28;1129;-70
2022/04/15 01:31:52;;;;;;;;;;;;;;;;;;5055973;28;1664;-70
2022/04/15 01:34:18;;;;;;;;;;;;;;;;;;5055699;28;1918;-70
2022/04/15 01:36:44;;;;;;;;;;;;;;;;;;5055246;28;1071;-70
2022/04/15 01:39:11;;;;;;;;;;;;;;;;;;5055361;28;1079;-70
2022/04/15 01:41:39;;;;;;;;;;;;;;;;;;5054739;28;1646;-70
2022/04/15 01:44:06;;;;;;;;;;;;;;;;;;5055324;28;1273;-70
2022/04/15 01:46:33;;;;;;;;;;;;;;;;;;5053886;28;1562;-70
2022/04/15 01:48:59;;;;;;;;;;;;;;;;;;5037898;28;1189;-70
2022/04/15 01:51:25;;;;;;;;;;;;;;;;;;5055524;28;1598;-70
2022/04/15 01:53:53;;;;;;;;;;;;;;;;;;5056608;28;1740;-70
2022/04/15 01:56:19;;;;;;;;;;;;;;;;;;5037914;28;1973;-70
2022/04/15 01:58:47;;;;;;;;;;;;;;;;;;5054778;28;1681;-70
2022/04/15 02:01:13;;;;;;;;;;;;;;;;;;5037249;28;1096;-70
2022/04/15 02:03:39;;;;;;;;;;;;;;;;;;5036304;28;1480;-70
2022/04/15 02:06:05;;;;;;;;;;;;;;;;;;5052486;28;1571;-69
2022/04/15 02:08:32;;;;;;;;;;;;;;;;;;5055406;28;781;-70
2022/04/15 02:10:58;;;;;;;;;;;;;;;;;;5056125;28;1067;-70
2022/04/15 02:13:24;;;;;;;;;;;;;;;;;;5037353;28;1591;-70
2022/04/15 02:15:51;;;;;;;;;;;;;;;;;;5054380;28;1914;-70
2022/04/15 02:18:18;;;;;;;;;;;;;;;;;;5054377;28;794;-70
2022/04/15 02:20:44;;;;;;;;;;;;;;;;;;5054745;28;1106;-70
2022/04/15 02:23:10;;;;;;;;;;;;;;;;;;5054616;28;1633;-70
2022/04/15 02:25:36;;;;;;;;;;;;;;;;;;5055111;28;799;-70
2022/04/15 02:28:02;;;;;;;;;;;;;;;;;;5053943;28;1064;-70
2022/04/15 02:30:29;;;;;;;;;;;;;;;;;;5054359;28;1008;-70
2022/04/15 02:32:56;;;;;;;;;;;;;;;;;;5054154;28;1705;-69
2022/04/15 02:35:22;;;;;;;;;;;;;;;;;;5053934;28;1926;-70
2022/04/15 02:37:49;;;;;;;;;;;;;;;;;;5054181;28;889;-69
2022/04/15 02:40:15;;;;;;;;;;;;;;;;;;5053209;28;1264;-70
2022/04/15 02:42:41;;;;;;;;;;;;;;;;;;5054031;28;1634;-70
2022/04/15 02:45:07;;;;;;;;;;;;;;;;;;5053463;28;1375;-70
2022/04/15 02:47:34;;;;;;;;;;;;;;;;;;5053849;28;1056;-70
2022/04/15 02:50:02;;;;;;;;;;;;;;;;;;5053731;28;882;-70
2022/04/15 02:52:28;;;;;;;;;;;;;;;;;;5050892;28;1765;-68
2022/04/15 02:54:54;;;;;;;;;;;;;;;;;;5048819;28;1903;-70
2022/04/15 02:57:20;;;;;;;;;;;;;;;;;;5053172;28;1575;-70
2022/04/15 02:59:46;;;;;;;;;;;;;;;;;;5054298;28;1064;-70
2022/04/15 03:02:14;;;;;;;;;;;;;;;;;;5053576;28;1622;-70
2022/04/15 03:04:40;;;;;;;;;;;;;;;;;;5053232;28;1637;-70
2022/04/15 03:07:07;;;;;;;;;;;;;;;;;;5053354;28;1071;-70
2022/04/15 03:09:34;;;;;;;;;;;;;;;;;;5035512;28;1306;-70
2022/04/15 03:12:00;;;;;;;;;;;;;;;;;;5053423;28;1669;-70
2022/04/15 03:14:26;;;;;;;;;;;;;;;;;;5053194;28;1373;-69
2022/04/15 03:16:52;;;;;;;;;;;;;;;;;;5053128;28;1963;-70
2022/04/15 03:19:18;;;;;;;;;;;;;;;;;;5035288;28;834;-70
2022/04/15 03:21:44;;;;;;;;;;;;;;;;;;5052744;28;1658;-70
2022/04/15 03:24:12;;;;;;;;;;;;;;;;;;5053160;28;1317;-70
2022/04/15 03:26:38;;;;;;;;;;;;;;;;;;5034636;28;1472;-69
2022/04/15 03:29:04;;;;;;;;;;;;;;;;;;5053249;28;981;-70
2022/04/15 03:31:31;;;;;;;;;;;;;;;;;;5053178;28;1535;-70
2022/04/15 03:33:57;;;;;;;;;;;;;;;;;;5052498;28;1364;-70
2022/04/15 03:36:23;;;;;;;;;;;;;;;;;;5052337;28;1918;-70
2022/04/15 03:38:49;;;;;;;;;;;;;;;;;;5053078;28;854;-70
2022/04/15 03:41:17;;;;;;;;;;;;;;;;;;5052781;28;1566;-69
2022/04/15 03:43:43;;;;;;;;;;;;;;;;;;5053067;28;1328;-70
2022/04/15 03:46:09;;;;;;;;;;;;;;;;;;5052249;28;1072;-69
2022/04/15 03:48:35;;;;;;;;;;;;;;;;;;5052548;28;870;-70
2022/04/15 03:51:01;;;;;;;;;;;;;;;;;;5052396;28;1602;-70
2022/04/15 03:53:28;;;;;;;;;;;;;;;;;;5052784;28;1399;-69
2022/04/15 03:55:54;;;;;;;;;;;;;;;;;;5053096;28;1969;-70
2022/04/15 03:58:21;;;;;;;;;;;;;;;;;;5052341;28;698;-69
2022/04/15 04:00:48;;;;;;;;;;;;;;;;;;5052792;28;1665;-70
2022/04/15 04:03:15;;;;;;;;;;;;;;;;;;5052173;28;1414;-70
2022/04/15 04:05:41;;;;;;;;;;;;;;;;;;5052191;28;1068;-70
2022/04/15 04:08:08;;;;;;;;;;;;;;;;;;5052122;28;953;-70
2022/04/15 04:10:34;;;;;;;;;;;;;;;;;;5049498;28;1606;-70
2022/04/15 04:13:00;;;;;;;;;;;;;;;;;;5042110;28;1498;-70
2022/04/15 04:15:29;;;;;;;;;;;;;;;;;;5051315;28;1952;-70
2022/04/15 04:17:55;;;;;;;;;;;;;;;;;;5032533;28;842;-69
2022/04/15 04:20:22;;;;;;;;;;;;;;;;;;5033057;28;1040;-71
2022/04/15 04:22:48;;;;;;;;;;;;;;;;;;5032798;28;1377;-71
2022/04/15 04:25:14;;;;;;;;;;;;;;;;;;5014751;28;906;-71
2022/04/15 04:27:41;;;;;;;;;;;;;;;;;;5033688;28;1403;-70
2022/04/15 04:30:08;;;;;;;;;;;;;;;;;;5054999;28;1649;-71
2022/04/15 04:32:36;;;;;;;;;;;;;;;;;;5056380;28;1618;-71
2022/04/15 04:35:02;;;;;;;;;;;;;;;;;;5056886;28;1348;-70
2022/04/15 04:37:28;;;;;;;;;;;;;;;;;;5056095;28;1930;-70
2022/04/15 04:39:55;;;;;;;;;;;;;;;;;;5057232;28;1123;-71
2022/04/15 04:42:21;;;;;;;;;;;;;;;;;;5058330;28;1067;-71
2022/04/15 04:44:47;;;;;;;;;;;;;;;;;;5060516;28;1265;-70
2022/04/15 04:47:13;;;;;;;;;;;;;;;;;;5056231;28;846;-70
2022/04/15 04:49:41;;;;;;;;;;;;;;;;;;5054865;28;1538;-70
2022/04/15 04:52:07;;;;;;;;;;;;;;;;;;5048076;28;1523;-70
2022/04/15 04:54:34;;;;;;;;;;;;;;;;;;5054423;28;1618;-70
2022/04/15 04:57:00;;;;;;;;;;;;;;;;;;5053365;28;1903;-70
2022/04/15 04:59:28;;;;;;;;;;;;;;;;;;5054409;28;925;-70
2022/04/15 05:01:54;;;;;;;;;;;;;;;;;;5053356;28;1538;-70
2022/04/15 05:04:20;;;;;;;;;;;;;;;;;;5053530;28;1590;-70
2022/04/15 05:06:48;;;;;;;;;;;;;;;;;;5053239;28;1602;-70
2022/04/15 05:09:15;;;;;;;;;;;;;;;;;;5052229;28;1059;-70
2022/04/15 05:11:41;;;;;;;;;;;;;;;;;;5053771;28;1614;-70
2022/04/15 05:14:08;;;;;;;;;;;;;;;;;;5045642;28;1532;-70
2022/04/15 05:16:34;;;;;;;;;;;;;;;;;;5042577;28;1895;-70
2022/04/15 05:19:00;;;;;;;;;;;;;;;;;;5043720;28;1490;-70
2022/04/15 05:21:26;;;;;;;;;;;;;;;;;;5045158;28;1428;-70
2022/04/15 05:23:54;;;;;;;;;;;;;;;;;;5053360;28;1333;-71
2022/04/15 05:26:20;;;;;;;;;;;;;;;;;;5052351;28;1591;-70
2022/04/15 05:28:47;;;;;;;;;;;;;;;;;;5035414;28;1175;-70
2022/04/15 05:31:13;;;;;;;;;;;;;;;;;;5052614;28;1574;-70
2022/04/15 05:33:39;;;;;;;;;;;;;;;;;;5052407;28;1658;-70
2022/04/15 05:36:05;;;;;;;;;;;;;;;;;;5051654;28;1946;-69
2022/04/15 05:38:32;;;;;;;;;;;;;;;;;;5053280;28;787;-70
2022/04/15 05:40:59;;;;;;;;;;;;;;;;;;5035069;28;1556;-71
2022/04/15 05:43:25;;;;;;;;;;;;;;;;;;5053894;28;1427;-71
2022/04/15 05:45:52;;;;;;;;;;;;;;;;;;5053006;28;1559;-70
2022/04/15 05:48:18;;;;;;;;;;;;;;;;;;5052626;28;1555;-70
2022/04/15 05:50:44;;;;;;;;;;;;;;;;;;5052869;28;1625;-70
2022/04/15 05:53:11;;;;;;;;;;;;;;;;;;5050839;28;2099;-70
2022/04/15 05:55:37;;;;;;;;;;;;;;;;;;5053272;28;1903;-70
2022/04/15 05:58:05;;;;;;;;;;;;;;;;;;5052777;28;976;-70
2022/04/15 06:00:32;;;;;;;;;;;;;;;;;;5052787;28;1558;-71
2022/04/15 06:02:58;;;;;;;;;;;;;;;;;;5052772;28;1300;-70
2022/04/15 06:05:24;;;;;;;;;;;;;;;;;;5052079;28;1638;-70
2022/04/15 06:07:51;;;;;;;;;;;;;;;;;;5050638;28;1591;-70
2022/04/15 06:10:18;;;;;;;;;;;;;;;;;;5052408;28;1523;-70
2022/04/15 06:12:57;;;;;;;;;;;;;;;;;;5052591;28;1551;-70
2022/04/15 06:15:28;;;;;;;;;;;;;;;;;;5052665;28;1029;-70
2022/04/15 06:17:55;;;;;;;;;;;;;;;;;;5052008;28;1894;-70
2022/04/15 06:20:21;;;;;;;;;;;;;;;;;;5052624;28;774;-71
2022/04/15 06:22:47;;;;;;;;;;;;;;;;;;5052203;28;1605;-70
2022/04/15 06:25:13;;;;;;;;;;;;;;;;;;5052343;28;1559;-71
2022/04/15 06:27:39;;;;;;;;;;;;;;;;;;5051611;28;1671;-71
2022/04/15 06:30:07;;;;;;;;;;;;;;;;;;5051631;28;1484;-70
2022/04/15 06:32:35;;;;;;;;;;;;;;;;;;5052239;28;1060;-70
2022/04/15 06:35:01;;;;;;;;;;;;;;;;;;5051401;28;1554;-70
2022/04/15 06:37:27;;;;;;;;;;;;;;;;;;5031932;28;1922;-70
2022/04/15 06:39:53;;;;;;;;;;;;;;;;;;5051704;28;1575;-70
2022/04/15 06:42:23;;;;;;;;;;;;;;;;;;5046272;28;1382;-70
2022/04/15 06:44:49;;;;;;;;;;;;;;;;;;5045891;28;1470;-69
2022/04/15 06:47:15;;;;;;;;;;;;;;;;;;5050586;28;1075;-69
2022/04/15 06:49:43;;;;;;;;;;;;;;;;;;5034743;28;1367;-69
2022/04/15 06:52:09;;;;;;;;;;;;;;;;;;5050497;28;1096;-69
2022/04/15 06:54:35;;;;;;;;;;;;;;;;;;5052372;28;1486;-69
2022/04/15 06:57:01;;;;;;;;;;;;;;;;;;5051912;28;1980;-69
2022/04/15 06:59:28;;;;;;;;;;;;;;;;;;5050052;28;1255;-68
2022/04/15 07:01:54;;;;;;;;;;;;;;;;;;5045773;28;1597;-69
2022/04/15 07:04:20;;;;;;;;;;;;;;;;;;5033010;28;1385;-68
2022/04/15 07:06:48;;;;;;;;;;;;;;;;;;5041413;28;1323;-68
2022/04/15 07:09:14;;;;;;;;;;;;;;;;;;5052502;28;1130;-68
2022/04/15 07:11:40;;;;;;;;;;;;;;;;;;5045269;28;1785;-69
2022/04/15 07:14:07;;;;;;;;;;;;;;;;;;5039853;28;2350;-69
2022/04/15 07:16:34;;;;;;;;;;;;;;;;;;5044073;23;2632;-69
2022/04/15 07:19:04;;;;;;;;;;;;;;;;;;5028725;28;2748;-69
2022/04/15 07:21:30;;;;;;;;;;;;;;;;;;5015426;28;1641;-70
2022/04/15 07:23:58;;;;;;;;;;;;;;;;;;5030669;28;1690;-67
2022/04/15 07:26:24;;;;;;;;;;;;;;;;;;5044977;28;1526;-70
2022/04/15 07:28:50;;;;;;;;;;;;;;;;;;5035137;28;1620;-70
2022/04/15 07:31:16;;;;;;;;;;;;;;;;;;5031605;28;1913;-70
2022/04/15 07:33:43;;;;;;;;;;;;;;;;;;5027036;28;1419;-70
2022/04/15 07:36:31;;;;;;;;;;;;;;;;;;5045669;28;1440;-68
2022/04/15 07:38:59;;;;;;;;;;;;;;;;;;5033048;28;1625;-70
2022/04/15 07:41:25;;;;;;;;;;;;;;;;;;5051129;28;837;-70
2022/04/15 07:43:51;;;;;;;;;;;;;;;;;;5041509;28;1383;-70
2022/04/15 07:46:17;;;;;;;;;;;;;;;;;;5030395;28;1327;-69
2022/04/15 07:48:43;;;;;;;;;;;;;;;;;;5031418;28;1068;-71
2022/04/15 07:51:10;;;;;;;;;;;;;;;;;;5030708;28;852;-70
2022/04/15 07:53:36;;;;;;;;;;;;;;;;;;5030144;28;1682;-69
2022/04/15 07:56:04;;;;;;;;;;;;;;;;;;5030072;28;1664;-70
2022/04/15 07:58:30;;;;;;;;;;;;;;;;;;5030518;28;1981;-69
2022/04/15 08:00:59;;;;;;;;;;;;;;;;;;5030504;28;871;-69
2022/04/15 08:03:26;;;;;;;;;;;;;;;;;;5012041;28;1278;-69
2022/04/15 08:05:52;;;;;;;;;;;;;;;;;;5030423;28;1414;-69
2022/04/15 08:08:18;;;;;;;;;;;;;;;;;;5030341;28;1147;-70
2022/04/15 08:10:44;;;;;;;;;;;;;;;;;;5030367;28;881;-69
2022/04/15 08:13:12;;;;;;;;;;;;;;;;;;5030799;28;961;-69
2022/04/15 08:15:38;;;;;;;;;;;;;;;;;;5030759;28;1313;-70
2022/04/15 08:18:05;;;;;;;;;;;;;;;;;;5030217;28;1971;-69
2022/04/15 08:20:31;;;;;;;;;;;;;;;;;;5012760;28;1235;-69
2022/04/15 08:22:57;;;;;;;;;;;;;;;;;;5030611;28;980;-69
2022/04/15 08:25:23;;;;;;;;;;;;;;;;;;5030440;28;1306;-69
2022/04/15 08:27:49;;;;;;;;;;;;;;;;;;5029947;28;865;-69
2022/04/15 08:30:17;;;;;;;;;;;;;;;;;;5030560;28;807;-69
2022/04/15 08:32:43;;;;;;;;;;;;;;;;;;5030585;28;1130;-69
2022/04/15 08:35:11;;;;;;;;;;;;;;;;;;5030217;28;1319;-68
2022/04/15 08:37:38;;;;;;;;;;;;;;;;;;5029820;28;1915;-69
2022/04/15 08:40:05;;;;;;;;;;;;;;;;;;5012518;28;1176;-69
2022/04/15 08:42:31;;;;;;;;;;;;;;;;;;5030162;28;1020;-69
2022/04/15 08:44:57;;;;;;;;;;;;;;;;;;5012001;28;1304;-70
2022/04/15 08:47:25;;;;;;;;;;;;;;;;;;5029980;28;960;-70
2022/04/15 08:49:51;;;;;;;;;;;;;;;;;;5028801;28;1556;-69
2022/04/15 08:52:18;;;;;;;;;;;;;;;;;;5029976;28;1052;-69
2022/04/15 08:54:44;;;;;;;;;;;;;;;;;;5027170;28;2086;-67
2022/04/15 08:57:11;;;;;;;;;;;;;;;;;;5029651;28;1959;-69
2022/04/15 08:59:40;;;;;;;;;;;;;;;;;;5030383;28;1084;-69
2022/04/15 09:02:06;;;;;;;;;;;;;;;;;;5030208;28;747;-69
2022/04/15 09:04:34;;;;;;;;;;;;;;;;;;5030167;28;908;-68
2022/04/15 09:07:00;;;;;;;;;;;;;;;;;;5029830;28;1300;-69
2022/04/15 09:09:29;;;;;;;;;;;;;;;;;;5029938;28;1116;-69
2022/04/15 09:11:56;;;;;;;;;;;;;;;;;;5029865;28;1084;-69
2022/04/15 09:14:23;;;;;;;;;;;;;;;;;;5030025;28;1083;-69
2022/04/15 09:16:49;;;;;;;;;;;;;;;;;;5014861;28;1979;-69
2022/04/15 09:19:16;;;;;;;;;;;;;;;;;;5033607;28;1012;-69
2022/04/15 09:21:51;;;;;;;;;;;;;;;;;;5033489;28;806;-69
2022/04/15 09:24:17;;;;;;;;;;;;;;;;;;5033728;28;1060;-70
2022/04/15 09:26:45;;;;;;;;;;;;;;;;;;5033601;28;1279;-69
2022/04/15 09:29:12;;;;;;;;;;;;;;;;;;5033715;28;1064;-69
2022/04/15 09:31:38;;;;;;;;;;;;;;;;;;5017998;28;1496;-69
2022/04/15 09:34:07;;;;;;;;;;;;;;;;;;5033210;28;1060;-69
2022/04/15 09:36:33;;;;;;;;;;;;;;;;;;5015224;28;1522;-69
2022/04/15 09:39:03;;;;;;;;;;;;;;;;;;5033389;28;1985;-68
2022/04/15 09:41:30;;;;;;;;;;;;;;;;;;5033112;28;946;-69
2022/04/15 09:43:56;;;;;;;;;;;;;;;;;;5032233;28;2344;-67
2022/04/15 09:46:23;;;;;;;;;;;;;;;;;;5031480;28;2003;-68
2022/04/15 09:49:03;;;;;;;;;;;;;;;;;;5032266;28;1060;-69
2022/04/15 09:51:34;;;;;;;;;;;;;;;;;;5015166;28;1316;-68
2022/04/15 09:54:04;;;;;;;;;;;;;;;;;;5015047;28;826;-69
2022/04/15 09:56:32;;;;;;;;;;;;;;;;;;5032626;28;1306;-69
2022/04/15 09:58:58;;;;;;;;;;;;;;;;;;5031736;28;2588;-69
2022/04/15 10:01:26;;;;;;;;;;;;;;;;;;5032728;28;1157;-68
2022/04/15 10:03:52;;;;;;;;;;;;;;;;;;5031134;28;2123;-68
2022/04/15 10:06:19;;;;;;;;;;;;;;;;;;5032537;28;1377;-69
2022/04/15 10:08:45;;;;;;;;;;;;;;;;;;5034427;28;1083;-69
2022/04/15 10:11:12;;;;;;;;;;;;;;;;;;5034019;28;1119;-69
2022/04/15 10:13:39;;;;;;;;;;;;;;;;;;5033426;28;878;-69
2022/04/15 10:16:05;;;;;;;;;;;;;;;;;;5032421;28;1297;-67
2022/04/15 10:18:31;;;;;;;;;;;;;;;;;;5032450;28;1902;-69
2022/04/15 10:21:01;;;;;;;;;;;;;;;;;;5031651;28;2008;-69
2022/04/15 10:23:28;;;;;;;;;;;;;;;;;;5029179;28;1949;-69
2022/04/15 10:25:55;;;;;;;;;;;;;;;;;;5033068;28;1407;-69
2022/04/15 10:28:44;;;;;;;;;;;;;;;;;;5033774;28;913;-69
2022/04/15 10:31:13;;;;;;;;;;;;;;;;;;5033371;28;978;-69
2022/04/15 10:33:40;;;;;;;;;;;;;;;;;;5032261;28;1084;-69
2022/04/15 10:36:11;;;;;;;;;;;;;;;;;;5031745;28;1305;-67
2022/04/15 10:38:37;;;;;;;;;;;;;;;;;;5032100;28;1976;-69
2022/04/15 10:41:12;;;;;;;;;;;;;;;;;;5032066;28;1119;-70
2022/04/15 10:43:38;;;;;;;;;;;;;;;;;;5032282;28;791;-68
2022/04/15 10:46:13;;;;;;;;;;;;;;;;;;5014115;28;1341;-67
2022/04/15 10:48:39;;;;;;;;;;;;;;;;;;5031676;28;937;-69
2022/04/15 10:51:13;;;;;;;;;;;;;;;;;;5031751;28;1123;-69
2022/04/15 10:53:39;;;;;;;;;;;;;;;;;;5031688;28;1047;-68
2022/04/15 10:56:07;;;;;;;;;;;;;;;;;;5031566;28;1320;-67
2022/04/15 10:58:33;;;;;;;;;;;;;;;;;;5031723;28;1918;-70
2022/04/15 11:01:13;;;;;;;;;;;;;;;;;;5013678;28;1256;-70
2022/04/15 11:03:41;;;;;;;;;;;;;;;;;;5028883;28;1158;-69
2022/04/15 11:06:09;;;;;;;;;;;;;;;;;;5031637;28;1407;-69
2022/04/15 11:08:44;;;;;;;;;;;;;;;;;;5031208;28;830;-69
2022/04/15 11:11:10;;;;;;;;;;;;;;;;;;5031514;28;1060;-70
2022/04/15 11:13:55;;;;;;;;;;;;;;;;;;5031568;28;1072;-69
2022/04/15 11:16:22;;;;;;;;;;;;;;;;;;5031238;28;1286;-68
2022/04/15 11:18:51;;;;;;;;;;;;;;;;;;5013717;28;1983;-69
2022/04/15 11:21:17;;;;;;;;;;;;;;;;;;5031467;28;1004;-68
2022/04/15 11:23:46;;;;;;;;;;;;;;;;;;5031268;28;873;-68
2022/04/15 11:26:12;;;;;;;;;;;;;;;;;;5012856;28;1314;-68
2022/04/15 11:28:38;;;;;;;;;;;;;;;;;;5031248;28;1119;-69
2022/04/15 11:31:05;;;;;;;;;;;;;;;;;;5031197;28;819;-68
2022/04/15 11:33:33;;;;;;;;;;;;;;;;;;5032354;28;1548;-69
2022/04/15 11:36:01;;;;;;;;;;;;;;;;;;5030969;28;1413;-68
2022/04/15 11:38:27;;;;;;;;;;;;;;;;;;5030735;28;1973;-68
2022/04/15 11:40:53;;;;;;;;;;;;;;;;;;5030999;28;890;-69
2022/04/15 11:43:19;;;;;;;;;;;;;;;;;;5031058;28;791;-67
2022/04/15 11:45:45;;;;;;;;;;;;;;;;;;5027860;28;2313;-67
2022/04/15 11:48:16;;;;;;;;;;;;;;;;;;5029321;28;983;-68
2022/04/15 11:50:42;;;;;;;;;;;;;;;;;;5030167;28;1079;-69
2022/04/15 11:53:09;;;;;;;;;;;;;;;;;;5030348;28;964;-69
2022/04/15 11:55:46;;;;;;;;;;;;;;;;;;5030379;28;1380;-68
2022/04/15 11:58:13;;;;;;;;;;;;;;;;;;5030235;28;1976;-68
2022/04/15 12:00:39;;;;;;;;;;;;;;;;;;5030516;28;1128;-68
2022/04/15 12:03:06;;;;;;;;;;;;;;;;;;5030813;28;984;-68
2022/04/15 12:05:32;;;;;;;;;;;;;;;;;;5030729;28;1303;-69
2022/04/15 12:07:58;;;;;;;;;;;;;;;;;;5030382;28;728;-69
2022/04/15 12:10:29;;;;;;;;;;;;;;;;;;5030792;28;838;-69
2022/04/15 12:12:55;;;;;;;;;;;;;;;;;;5013112;28;1073;-69
2022/04/15 12:15:25;;;;;;;;;;;;;;;;;;5030447;28;1321;-69
2022/04/15 12:17:52;;;;;;;;;;;;;;;;;;5030252;28;1979;-70
2022/04/15 12:20:18;;;;;;;;;;;;;;;;;;5030309;28;1092;-68
2022/04/15 12:22:44;;;;;;;;;;;;;;;;;;5030500;28;744;-69
2022/04/15 12:25:14;;;;;;;;;;;;;;;;;;5030598;28;1326;-69
2022/04/15 12:27:44;;;;;;;;;;;;;;;;;;5030326;28;1054;-68
2022/04/15 12:30:10;;;;;;;;;;;;;;;;;;5030497;28;1124;-68
2022/04/15 12:32:36;;;;;;;;;;;;;;;;;;5030374;28;1055;-69
2022/04/15 12:35:12;;;;;;;;;;;;;;;;;;5030211;28;1394;-69
2022/04/15 12:37:39;;;;;;;;;;;;;;;;;;5030171;28;1079;-70
2022/04/15 12:40:07;;;;;;;;;;;;;;;;;;5030267;28;1918;-69
2022/04/15 12:42:34;;;;;;;;;;;;;;;;;;5030413;28;937;-68
2022/04/15 12:45:03;;;;;;;;;;;;;;;;;;5012635;28;1335;-69
2022/04/15 12:47:29;;;;;;;;;;;;;;;;;;5030081;28;1123;-69
2022/04/15 12:50:06;;;;;;;;;;;;;;;;;;5030781;28;788;-70
2022/04/15 12:52:33;;;;;;;;;;;;;;;;;;5032670;28;1387;-70
2022/04/15 12:55:00;;;;;;;;;;;;;;;;;;5034145;28;1410;-69
2022/04/15 12:57:30;;;;;;;;;;;;;;;;;;5034152;28;779;-68
2022/04/15 12:59:56;;;;;;;;;;;;;;;;;;5034133;28;1981;-69
2022/04/15 13:02:24;;;;;;;;;;;;;;;;;;5034217;28;843;-70
2022/04/15 13:04:50;;;;;;;;;;;;;;;;;;5034067;28;1381;-69
2022/04/15 13:07:18;;;;;;;;;;;;;;;;;;5033931;28;937;-69
2022/04/15 13:09:44;;;;;;;;;;;;;;;;;;5033209;28;2004;-69
2022/04/15 13:12:11;;;;;;;;;;;;;;;;;;5032280;28;1682;-69
2022/04/15 13:14:37;;;;;;;;;;;;;;;;;;5016083;28;1292;-69
2022/04/15 13:17:04;;;;;;;;;;;;;;;;;;5044704;23;3752;-69
2022/04/15 13:19:31;;;;;;;;;;;;;;;;;;5035579;28;1973;-68
2022/04/15 13:21:58;;;;;;;;;;;;;;;;;;5036828;28;1099;-71
2022/04/15 13:24:24;;;;;;;;;;;;;;;;;;5036705;28;1123;-71
2022/04/15 13:26:50;;;;;;;;;;;;;;;;;;5033548;28;1330;-71
2022/04/15 13:29:16;;;;;;;;;;;;;;;;;;5033463;28;1158;-71
2022/04/15 13:31:42;;;;;;;;;;;;;;;;;;5033705;28;1076;-71
2022/04/15 13:34:08;;;;;;;;;;;;;;;;;;5033755;28;993;-71
2022/04/15 13:36:36;;;;;;;;;;;;;;;;;;5033174;28;1395;-71
2022/04/15 13:39:03;;;;;;;;;;;;;;;;;;4997995;28;1914;-71
2022/04/15 13:41:29;;;;;;;;;;;;;;;;;;4994218;28;712;-71
2022/04/15 13:43:55;;;;;;;;;;;;;;;;;;4994353;28;934;-72
2022/04/15 13:46:22;;;;;;;;;;;;;;;;;;4998388;28;2330;-70
2022/04/15 13:48:48;;;;;;;;;;;;;;;;;;4993059;28;1049;-69
2022/04/15 13:51:14;;;;;;;;;;;;;;;;;;4993262;28;844;-70
2022/04/15 13:56:39;;;;;;;;;;;;;;;;;;4993558;28;1297;-70
2022/04/15 13:59:05;;;;;;;;;;;;;;;;;;4993929;28;1970;-69
2022/04/15 14:01:32;;;;;;;;;;;;;;;;;;4993712;28;1112;-70
2022/04/15 14:03:58;;;;;;;;;;;;;;;;;;4993823;28;1073;-71
2022/04/15 14:06:24;;;;;;;;;;;;;;;;;;4975493;28;1354;-70
2022/04/15 14:08:52;;;;;;;;;;;;;;;;;;4993599;28;1033;-70
2022/04/15 14:11:18;;;;;;;;;;;;;;;;;;4993646;28;854;-70
2022/04/15 14:13:44;;;;;;;;;;;;;;;;;;4993618;28;836;-69
2022/04/15 14:16:11;;;;;;;;;;;;;;;;;;4993334;28;1076;-69
2022/04/15 14:18:37;;;;;;;;;;;;;;;;;;4993635;28;1922;-70
2022/04/15 14:21:03;;;;;;;;;;;;;;;;;;4993360;28;784;-70
2022/04/15 14:23:29;;;;;;;;;;;;;;;;;;4993225;28;1123;-70
2022/04/15 14:25:57;;;;;;;;;;;;;;;;;;4993276;28;831;-69
2022/04/15 14:28:24;;;;;;;;;;;;;;;;;;4992943;28;1384;-70
2022/04/15 14:30:51;;;;;;;;;;;;;;;;;;4993101;28;1139;-70
2022/04/15 14:33:17;;;;;;;;;;;;;;;;;;4993129;28;1084;-70
2022/04/15 14:35:44;;;;;;;;;;;;;;;;;;4992946;28;1112;-68
2022/04/15 14:38:11;;;;;;;;;;;;;;;;;;4992478;28;1393;-70
2022/04/15 14:40:37;;;;;;;;;;;;;;;;;;4992850;28;1986;-70
2022/04/15 14:43:04;;;;;;;;;;;;;;;;;;4991868;28;1277;-70
2022/04/15 14:45:31;;;;;;;;;;;;;;;;;;4993198;28;807;-70
2022/04/15 14:47:57;;;;;;;;;;;;;;;;;;4992767;28;1384;-70
2022/04/15 14:50:23;;;;;;;;;;;;;;;;;;4992612;28;1123;-69
2022/04/15 14:52:49;;;;;;;;;;;;;;;;;;4992846;28;1002;-70
2022/04/15 14:55:16;;;;;;;;;;;;;;;;;;4995321;28;2056;-70
2022/04/15 14:57:42;;;;;;;;;;;;;;;;;;5010174;28;1490;-70
2022/04/15 15:00:10;;;;;;;;;;;;;;;;;;5011970;28;1910;-70
2022/04/15 15:02:38;;;;;;;;;;;;;;;;;;5011938;28;1068;-72
2022/04/15 15:05:05;;;;;;;;;;;;;;;;;;5012355;28;823;-70
2022/04/15 15:07:31;;;;;;;;;;;;;;;;;;5011705;28;1392;-69
2022/04/15 15:09:57;;;;;;;;;;;;;;;;;;5012210;28;799;-72
2022/04/15 15:12:24;;;;;;;;;;;;;;;;;;5011709;28;890;-71
2022/04/15 15:14:50;;;;;;;;;;;;;;;;;;5012278;28;1091;-71
2022/04/15 15:17:18;;;;;;;;;;;;;;;;;;5011459;28;1341;-71
2022/04/15 15:19:46;;;;;;;;;;;;;;;;;;5011673;28;1915;-71
2022/04/15 15:22:12;;;;;;;;;;;;;;;;;;5011609;28;894;-71
2022/04/15 15:30:07;;;;;;;;;;;;;;;;;;5011937;28;1012;-71
2022/04/15 15:32:35;;;;;;;;;;;;;;;;;;5011780;28;894;-71
2022/04/15 15:35:01;;;;;;;;;;;;;;;;;;5011729;28;918;-71
2022/04/15 15:37:28;;;;;;;;;;;;;;;;;;5011819;28;1321;-71
2022/04/15 15:39:54;;;;;;;;;;;;;;;;;;5011570;28;1919;-71
2022/04/15 15:42:20;;;;;;;;;;;;;;;;;;5011821;28;1127;-71
2022/04/15 15:44:46;;;;;;;;;;;;;;;;;;5011867;28;912;-72
2022/04/15 15:47:13;;;;;;;;;;;;;;;;;;5001081;28;2222;-71
2022/04/15 15:49:40;;;;;;;;;;;;;;;;;;5011096;28;1064;-71
2022/04/15 15:52:07;;;;;;;;;;;;;;;;;;4994009;28;1207;-71
2022/04/15 15:54:33;;;;;;;;;;;;;;;;;;5010492;28;1273;-70
2022/04/15 15:56:59;;;;;;;;;;;;;;;;;;5010946;28;1315;-70
2022/04/15 15:59:27;;;;;;;;;;;;;;;;;;5011301;28;1975;-71
2022/04/15 16:01:55;;;;;;;;;;;;;;;;;;5011289;28;1072;-71
2022/04/15 16:04:21;;;;;;;;;;;;;;;;;;5011534;28;1123;-70
2022/04/15 16:06:48;;;;;;;;;;;;;;;;;;4993055;28;1317;-71
2022/04/15 16:09:14;;;;;;;;;;;;;;;;;;5011221;28;1108;-70
2022/04/15 16:11:41;;;;;;;;;;;;;;;;;;5011237;28;776;-71
2022/04/15 16:14:07;;;;;;;;;;;;;;;;;;5011772;28;1088;-70
2022/04/15 16:16:33;;;;;;;;;;;;;;;;;;5012553;28;1311;-71
2022/04/15 16:18:59;;;;;;;;;;;;;;;;;;5015184;28;1915;-71
2022/04/15 16:21:26;;;;;;;;;;;;;;;;;;5011025;28;787;-70
2022/04/15 16:23:53;;;;;;;;;;;;;;;;;;5011195;28;1056;-70
2022/04/15 16:26:19;;;;;;;;;;;;;;;;;;5010035;28;1314;-70
2022/04/15 16:28:46;;;;;;;;;;;;;;;;;;5010274;28;1528;-70
2022/04/15 16:31:13;;;;;;;;;;;;;;;;;;5009227;28;1564;-70
2022/04/15 16:33:39;;;;;;;;;;;;;;;;;;5010486;28;1658;-71
2022/04/15 16:36:05;;;;;;;;;;;;;;;;;;5010889;28;791;-68
2022/04/15 16:38:32;;;;;;;;;;;;;;;;;;4992546;28;1417;-71
2022/04/15 16:41:00;;;;;;;;;;;;;;;;;;5009778;28;1974;-70
2022/04/15 16:43:26;;;;;;;;;;;;;;;;;;4991660;28;1704;-70
2022/04/15 16:45:52;;;;;;;;;;;;;;;;;;5007983;28;1672;-70
2022/04/15 16:48:19;;;;;;;;;;;;;;;;;;5008058;28;1332;-70
2022/04/15 16:50:45;;;;;;;;;;;;;;;;;;5008400;28;917;-71
2022/04/15 16:53:11;;;;;;;;;;;;;;;;;;5008889;28;1548;-70
2022/04/15 16:58:41;;;;;;;;;;;;;;;;;;4976134;28;1710;-71
2022/04/15 17:01:08;;;;;;;;;;;;;;;;;;5008476;28;1965;-70
2022/04/15 17:03:34;;;;;;;;;;;;;;;;;;5005928;28;1576;-69
2022/04/15 17:06:00;;;;;;;;;;;;;;;;;;5008530;28;1168;-71
2022/04/15 17:08:26;;;;;;;;;;;;;;;;;;5008259;28;1548;-70
2022/04/15 17:10:53;;;;;;;;;;;;;;;;;;5009686;28;1068;-70
2022/04/15 17:13:20;;;;;;;;;;;;;;;;;;5008836;28;791;-70
2022/04/15 17:15:48;;;;;;;;;;;;;;;;;;5008400;28;1728;-70